Terminal Aerodrome Forecast
Issued by NWS

Home | Current Version | Previous Version | Text Only | Print | Product List | Glossary On
Versions: 1 2 3 4 5 6 7 8 9 10 11 12 13 14 15 16 17 18 19 20 21 22
000
FTUS43 KAPX 311700
TAFAPN
TAF
KAPN 311720Z 3118/0118 28007KT P6SM SCT040
     FM312000 12007KT P6SM VCSH BKN045
     FM010000 VRB04KT P6SM SCT050
     FM011400 15005KT P6SM FEW080=

USA.gov is the U.S. government's official web portal to all federal, state and local government web resources and services.